createdAt,value
2017-11-30T00:01:21.729Z,96760.55
2017-11-30T00:03:49.199Z,96754.72
2017-11-30T00:06:16.836Z,96749.27
2017-11-30T00:08:44.235Z,96756.47
2017-11-30T00:11:11.667Z,96754.94
2017-11-30T00:13:39.084Z,96752.30
2017-11-30T00:16:06.527Z,96748.42
2017-11-30T00:18:33.922Z,96749.95
2017-11-30T00:21:01.352Z,96748.84
2017-11-30T00:23:28.757Z,96747.60
2017-11-30T00:25:56.221Z,96742.44
2017-11-30T00:28:23.641Z,96746.48
2017-11-30T00:30:51.162Z,96745.92
2017-11-30T00:33:18.562Z,96749.53
2017-11-30T00:35:45.988Z,96749.70
2017-11-30T00:38:13.401Z,96747.45
2017-11-30T00:40:40.823Z,96742.99
2017-11-30T00:43:20.105Z,96745.23
2017-11-30T00:45:47.539Z,96743.38
2017-11-30T00:48:14.931Z,96738.80
2017-11-30T00:50:42.375Z,96736.66
2017-11-30T00:53:09.864Z,96738.33
2017-11-30T00:55:37.338Z,96727.05
2017-11-30T00:58:04.724Z,96736.12
2017-11-30T01:00:32.147Z,96734.68
2017-11-30T01:02:59.541Z,96738.09
2017-11-30T01:05:27.033Z,96740.22
2017-11-30T01:07:54.471Z,96729.39
2017-11-30T01:10:21.924Z,96740.45
2017-11-30T01:12:49.427Z,96739.67
2017-11-30T01:15:16.859Z,96730.57
2017-11-30T01:17:44.283Z,96739.08
2017-11-30T01:20:11.728Z,96736.14
2017-11-30T01:22:39.163Z,96736.61
2017-11-30T01:25:06.557Z,96733.91
2017-11-30T01:27:34.048Z,96734.29
2017-11-30T01:30:01.511Z,96732.24
2017-11-30T01:32:29.032Z,96729.55
2017-11-30T01:34:56.525Z,96725.31
2017-11-30T01:37:24.046Z,96727.10
2017-11-30T01:39:51.462Z,96726.77
2017-11-30T01:42:18.899Z,96720.89
2017-11-30T01:44:46.328Z,96725.93
2017-11-30T01:47:13.769Z,96719.67
2017-11-30T01:49:41.165Z,96721.04
2017-11-30T01:52:08.636Z,96722.42
2017-11-30T01:54:36.208Z,96715.06
2017-11-30T01:57:03.688Z,96717.61
2017-11-30T01:59:31.075Z,96711.26
2017-11-30T02:01:58.527Z,96704.58
2017-11-30T02:04:26.012Z,96703.06
2017-11-30T02:06:53.448Z,96699.60
2017-11-30T02:09:21.097Z,96700.78
2017-11-30T02:11:48.611Z,96705.05
2017-11-30T02:14:15.995Z,96700.88
2017-11-30T02:16:43.460Z,96703.27
2017-11-30T02:19:10.866Z,96701.69
2017-11-30T02:21:38.384Z,96702.50
2017-11-30T02:24:05.776Z,96700.88
2017-11-30T02:26:33.217Z,96705.42
2017-11-30T02:29:00.672Z,96696.89
2017-11-30T02:31:28.149Z,96698.06
2017-11-30T02:33:55.737Z,96695.06
2017-11-30T02:36:23.313Z,96695.14
2017-11-30T02:38:50.745Z,96696.28
2017-11-30T02:41:18.136Z,96696.17
2017-11-30T02:43:45.617Z,96697.55
2017-11-30T02:46:13.129Z,96689.62
2017-11-30T02:48:40.660Z,96688.88
2017-11-30T02:51:08.052Z,96688.94
2017-11-30T02:53:35.476Z,96689.75
2017-11-30T02:56:02.964Z,96680.88
2017-11-30T02:58:30.387Z,96677.73
2017-11-30T03:00:57.800Z,96683.03
2017-11-30T03:03:25.378Z,96680.64
2017-11-30T03:05:52.767Z,96687.06
2017-11-30T03:08:20.187Z,96676.53
2017-11-30T03:10:47.589Z,96675.52
2017-11-30T03:13:15.075Z,96670.13
2017-11-30T03:15:42.484Z,96680.27
2017-11-30T03:18:09.899Z,96667.64
2017-11-30T03:20:37.319Z,96673.58
2017-11-30T03:23:04.738Z,96667.11
2017-11-30T03:25:32.124Z,96666.59
2017-11-30T03:27:59.772Z,96665.78
2017-11-30T03:30:27.390Z,96666.82
2017-11-30T03:32:54.940Z,96664.70
2017-11-30T03:35:22.333Z,96657.25
2017-11-30T03:37:49.768Z,96663.13
2017-11-30T03:40:17.160Z,96672.41
2017-11-30T03:42:44.634Z,96663.07
2017-11-30T03:45:12.047Z,96669.59
2017-11-30T03:47:39.430Z,96668.52
2017-11-30T03:50:06.894Z,96665.83
2017-11-30T03:52:34.367Z,96664.11
2017-11-30T03:55:01.787Z,96670.77
2017-11-30T03:57:29.194Z,96671.67
2017-11-30T03:59:56.644Z,96664.68
2017-11-30T04:02:24.084Z,96661.16
2017-11-30T04:04:51.516Z,96658.30
2017-11-30T04:07:18.913Z,96656.25
2017-11-30T04:09:46.331Z,96651.41
2017-11-30T04:12:13.840Z,96652.75
2017-11-30T04:14:41.283Z,96654.50
2017-11-30T04:17:08.676Z,96651.70
2017-11-30T04:19:36.124Z,96644.92
2017-11-30T04:22:03.605Z,96639.91
2017-11-30T04:24:31.020Z,96641.22
2017-11-30T04:26:58.436Z,96648.22
2017-11-30T04:29:25.915Z,96640.75
2017-11-30T04:31:53.360Z,96639.23
2017-11-30T04:34:20.813Z,96646.72
2017-11-30T04:36:48.208Z,96641.11
2017-11-30T04:39:15.678Z,96630.60
2017-11-30T04:41:43.124Z,96627.91
2017-11-30T04:44:10.616Z,96626.05
2017-11-30T04:46:38.089Z,96623.56
2017-11-30T04:49:05.511Z,96625.13
2017-11-30T04:51:32.907Z,96623.28
2017-11-30T04:54:00.360Z,96630.94
2017-11-30T04:56:27.756Z,96629.56
2017-11-30T04:58:55.218Z,96632.25
2017-11-30T05:01:22.701Z,96642.16
2017-11-30T05:03:50.103Z,96641.32
2017-11-30T05:06:17.533Z,96635.75
2017-11-30T05:08:44.924Z,96642.36
2017-11-30T05:11:12.379Z,96643.51
2017-11-30T05:13:40.189Z,96640.48
2017-11-30T05:16:07.643Z,96641.32
2017-11-30T05:18:35.041Z,96643.23
2017-11-30T05:21:02.569Z,96646.77
2017-11-30T05:23:29.953Z,96646.90
2017-11-30T05:25:57.427Z,96641.22
2017-11-30T05:28:24.850Z,96646.53
2017-11-30T05:30:52.300Z,96641.80
2017-11-30T05:33:19.715Z,96643.38
2017-11-30T05:35:47.155Z,96644.78
2017-11-30T05:38:14.543Z,96653.79
2017-11-30T05:40:42.035Z,96652.14
2017-11-30T05:43:09.423Z,96655.77
2017-11-30T05:45:36.852Z,96646.09
2017-11-30T05:48:04.249Z,96649.82
2017-11-30T05:50:31.695Z,96643.23
2017-11-30T05:52:59.174Z,96643.67
2017-11-30T05:55:26.673Z,96644.78
2017-11-30T05:57:54.073Z,96652.59
2017-11-30T06:00:21.575Z,96658.31
2017-11-30T06:02:49.116Z,96656.20
2017-11-30T06:05:16.632Z,96662.62
2017-11-30T06:07:44.034Z,96660.78
2017-11-30T06:10:11.451Z,96657.63
2017-11-30T06:12:38.931Z,96657.52
2017-11-30T06:15:06.323Z,96661.44
2017-11-30T06:17:33.817Z,96654.63
2017-11-30T06:20:01.224Z,96657.55
2017-11-30T06:22:28.751Z,96665.38
2017-11-30T06:24:56.173Z,96663.73
2017-11-30T06:27:23.621Z,96661.05
2017-11-30T06:29:51.093Z,96671.27
2017-11-30T06:32:18.515Z,96662.83
2017-11-30T06:34:45.907Z,96668.95
2017-11-30T06:37:13.353Z,96671.34
2017-11-30T06:39:40.749Z,96663.67
2017-11-30T06:42:08.183Z,96667.34
2017-11-30T06:44:35.573Z,96669.45
2017-11-30T06:47:03.014Z,96672.75
2017-11-30T06:49:30.469Z,96667.64
2017-11-30T06:51:57.932Z,96674.80
2017-11-30T06:54:25.412Z,96665.92
2017-11-30T06:56:52.840Z,96677.82
2017-11-30T06:59:20.237Z,96681.62
2017-11-30T07:01:47.694Z,96682.39
2017-11-30T07:04:15.090Z,96683.73
2017-11-30T07:06:42.563Z,96686.86
2017-11-30T07:09:10.020Z,96693.55
2017-11-30T07:11:37.490Z,96693.78
2017-11-30T07:14:04.965Z,96693.27
2017-11-30T07:16:32.429Z,96701.20
2017-11-30T07:18:59.819Z,96699.87
2017-11-30T07:21:27.375Z,96700.01
2017-11-30T07:23:54.820Z,96702.19
2017-11-30T07:26:22.312Z,96709.31
2017-11-30T07:28:49.770Z,96713.79
2017-11-30T07:31:17.156Z,96714.42
2017-11-30T07:33:44.605Z,96709.64
2017-11-30T07:36:12.104Z,96717.31
2017-11-30T07:38:39.533Z,96720.16
2017-11-30T07:41:07.136Z,96721.72
2017-11-30T07:43:34.556Z,96722.45
2017-11-30T07:46:01.963Z,96724.48
2017-11-30T07:48:29.464Z,96729.12
2017-11-30T07:50:56.893Z,96732.14
2017-11-30T07:53:24.364Z,96729.69
2017-11-30T07:55:51.759Z,96737.25
2017-11-30T07:58:19.214Z,96738.13
2017-11-30T08:00:46.621Z,96738.10
2017-11-30T08:03:14.189Z,96739.34
2017-11-30T08:05:41.579Z,96746.87
2017-11-30T08:08:09.109Z,96746.48
2017-11-30T08:10:36.574Z,96747.69
2017-11-30T08:13:04.001Z,96742.64
2017-11-30T08:15:31.410Z,96746.10
2017-11-30T08:17:58.878Z,96749.84
2017-11-30T08:20:26.371Z,96749.23
2017-11-30T08:22:53.939Z,96748.35
2017-11-30T08:25:21.414Z,96757.91
2017-11-30T08:27:48.905Z,96756.25
2017-11-30T08:30:16.327Z,96747.78
2017-11-30T08:32:43.729Z,96746.22
2017-11-30T08:35:11.189Z,96750.04
2017-11-30T08:37:38.596Z,96753.52
2017-11-30T08:40:06.113Z,96752.22
2017-11-30T08:42:33.508Z,96757.75
2017-11-30T08:45:01.102Z,96753.01
2017-11-30T08:47:28.504Z,96757.64
2017-11-30T08:49:55.972Z,96766.39
2017-11-30T08:52:23.398Z,96762.70
2017-11-30T08:54:50.920Z,96762.76
2017-11-30T08:57:18.302Z,96756.25
2017-11-30T08:59:45.881Z,96756.09
2017-11-30T09:02:13.330Z,96758.55
2017-11-30T09:04:40.761Z,96767.34
2017-11-30T09:07:08.152Z,96766.22
2017-11-30T09:09:35.639Z,96767.42
2017-11-30T09:12:03.038Z,96766.30
2017-11-30T09:14:30.483Z,96769.75
2017-11-30T09:16:57.950Z,96765.41
2017-11-30T09:19:25.527Z,96772.83
2017-11-30T09:21:52.997Z,96770.96
2017-11-30T09:24:20.560Z,96768.55
2017-11-30T09:26:48.047Z,96770.14
2017-11-30T09:29:15.488Z,96770.36
2017-11-30T09:31:42.930Z,96771.72
2017-11-30T09:34:10.360Z,96773.21
2017-11-30T09:36:37.756Z,96774.58
2017-11-30T09:39:05.208Z,96767.27
2017-11-30T09:41:32.609Z,96769.09
2017-11-30T09:44:00.133Z,96769.16
2017-11-30T09:46:27.560Z,96769.77
2017-11-30T09:48:54.980Z,96766.10
2017-11-30T09:51:22.425Z,96760.52
2017-11-30T09:53:49.824Z,96763.94
2017-11-30T09:56:17.361Z,96757.67
2017-11-30T09:58:44.748Z,96761.81
2017-11-30T10:01:12.198Z,96760.96
2017-11-30T10:03:39.675Z,96756.39
2017-11-30T10:06:07.145Z,96753.41
2017-11-30T10:08:34.621Z,96753.47
2017-11-30T10:11:02.078Z,96756.03
2017-11-30T10:13:29.472Z,96752.35
2017-11-30T10:15:57.046Z,96749.33
2017-11-30T10:18:24.560Z,96749.20
2017-11-30T10:20:52.060Z,96752.71
2017-11-30T10:23:19.459Z,96744.41
2017-11-30T10:25:46.943Z,96742.27
2017-11-30T10:28:14.335Z,96732.99
2017-11-30T10:30:41.778Z,96734.38
2017-11-30T10:33:09.220Z,96732.72
2017-11-30T10:35:36.642Z,96739.76
2017-11-30T10:38:04.036Z,96739.03
2017-11-30T10:40:31.520Z,96730.83
2017-11-30T10:42:58.932Z,96735.66
2017-11-30T10:45:26.424Z,96737.14
2017-11-30T10:47:53.876Z,96746.66
2017-11-30T10:50:21.342Z,96740.64
2017-11-30T10:52:48.770Z,96730.83
2017-11-30T10:55:16.242Z,96732.11
2017-11-30T10:57:43.696Z,96734.05
2017-11-30T11:00:11.100Z,96744.58
2017-11-30T11:02:38.532Z,96736.22
2017-11-30T11:05:05.947Z,96737.64
2017-11-30T11:07:33.372Z,96737.75
2017-11-30T11:10:00.859Z,96742.61
2017-11-30T11:12:28.305Z,96737.67
2017-11-30T11:14:55.813Z,96746.08
2017-11-30T11:17:23.412Z,96738.78
2017-11-30T11:19:50.837Z,96741.30
2017-11-30T11:22:18.306Z,96738.55
2017-11-30T11:24:45.773Z,96736.39
2017-11-30T11:27:13.272Z,96742.67
2017-11-30T11:29:40.668Z,96736.78
2017-11-30T11:32:08.192Z,96740.16
2017-11-30T11:34:35.592Z,96717.15
2017-11-30T11:37:03.024Z,96726.81
2017-11-30T11:39:30.549Z,96723.07
2017-11-30T11:41:57.996Z,96738.85
2017-11-30T11:44:25.427Z,96745.08
2017-11-30T11:46:52.914Z,96748.88
2017-11-30T11:49:20.324Z,96740.59
2017-11-30T11:51:47.780Z,96738.23
2017-11-30T11:54:15.181Z,96738.36
2017-11-30T11:56:42.696Z,96737.36
2017-11-30T11:59:10.101Z,96730.63
2017-11-30T12:01:37.621Z,96724.98
2017-11-30T12:04:05.022Z,96729.97
2017-11-30T12:06:32.455Z,96725.95
2017-11-30T12:09:00.037Z,96721.87
2017-11-30T12:11:27.508Z,96718.27
2017-11-30T12:13:55.068Z,96722.67
2017-11-30T12:16:22.486Z,96717.09
2017-11-30T12:18:49.929Z,96714.88
2017-11-30T12:21:17.395Z,96712.62
2017-11-30T12:23:44.851Z,96711.61
2017-11-30T12:26:12.323Z,96718.88
2017-11-30T12:28:39.766Z,96717.59
2017-11-30T12:31:07.156Z,96715.97
2017-11-30T12:33:34.608Z,96719.38
2017-11-30T12:36:01.987Z,96722.28
2017-11-30T12:38:29.476Z,96707.44
2017-11-30T12:40:56.891Z,96713.08
2017-11-30T12:43:24.427Z,96706.95
2017-11-30T12:45:51.876Z,96711.13
2017-11-30T12:48:19.354Z,96707.14
2017-11-30T12:50:46.816Z,96701.75
2017-11-30T12:53:14.291Z,96710.32
2017-11-30T12:55:41.697Z,96707.46
2017-11-30T12:58:09.222Z,96705.61
2017-11-30T13:00:36.641Z,96706.86
2017-11-30T13:03:04.129Z,96710.61
2017-11-30T13:05:31.521Z,96699.42
2017-11-30T13:07:58.974Z,96705.30
2017-11-30T13:10:26.384Z,96696.13
2017-11-30T13:12:53.887Z,96693.78
2017-11-30T13:15:21.308Z,96698.88
2017-11-30T13:17:48.778Z,96691.92
2017-11-30T13:20:16.169Z,96696.66
2017-11-30T13:22:43.592Z,96699.07
2017-11-30T13:25:11.096Z,96699.88
2017-11-30T13:27:38.560Z,96690.64
2017-11-30T13:30:06.029Z,96706.45
2017-11-30T13:32:33.410Z,96706.61
2017-11-30T13:35:00.854Z,96700.98
2017-11-30T13:37:28.263Z,96704.44
2017-11-30T13:39:55.854Z,96714.00
2017-11-30T13:42:23.369Z,96709.27
2017-11-30T13:44:50.803Z,96706.41
2017-11-30T13:47:18.192Z,96714.64
2017-11-30T13:49:45.679Z,96714.48
2017-11-30T13:52:13.088Z,96722.08
2017-11-30T13:54:40.559Z,96722.67
2017-11-30T13:57:07.950Z,96716.45
2017-11-30T13:59:35.469Z,96711.25
2017-11-30T14:02:02.854Z,96715.71
2017-11-30T14:04:30.288Z,96726.50
2017-11-30T14:06:57.707Z,96721.56
2017-11-30T14:09:25.220Z,96719.29
2017-11-30T14:11:52.612Z,96728.41
2017-11-30T14:14:20.064Z,96726.44
2017-11-30T14:16:47.466Z,96726.10
2017-11-30T14:19:14.908Z,96723.15
2017-11-30T14:21:42.399Z,96726.82
2017-11-30T14:24:09.952Z,96719.34
2017-11-30T14:26:37.414Z,96723.23
2017-11-30T14:29:04.848Z,96724.45
2017-11-30T14:31:32.267Z,96719.30
2017-11-30T14:33:59.738Z,96708.54
2017-11-30T14:36:27.230Z,96719.03
2017-11-30T14:38:54.635Z,96718.09
2017-11-30T14:41:22.154Z,96715.58
2017-11-30T14:43:49.547Z,96715.38
2017-11-30T14:46:16.991Z,96717.50
2017-11-30T14:48:44.414Z,96720.23
2017-11-30T14:51:11.869Z,96724.88
2017-11-30T14:53:39.307Z,96723.83
2017-11-30T14:56:06.729Z,96720.34
2017-11-30T14:58:34.135Z,96714.27
2017-11-30T15:01:01.606Z,96718.13
2017-11-30T15:03:28.994Z,96717.65
2017-11-30T15:05:56.561Z,96717.65
2017-11-30T15:08:23.971Z,96721.88
2017-11-30T15:10:51.407Z,96720.31
2017-11-30T15:13:18.846Z,96723.70
2017-11-30T15:15:46.278Z,96727.84
2017-11-30T15:18:14.569Z,96729.81
2017-11-30T15:20:42.094Z,96732.18
2017-11-30T15:23:09.478Z,96724.55
2017-11-30T15:25:37.011Z,96730.10
2017-11-30T15:28:04.510Z,96729.59
2017-11-30T15:30:31.950Z,96728.94
2017-11-30T15:32:59.356Z,96732.70
2017-11-30T15:35:26.794Z,96735.27
2017-11-30T15:37:54.316Z,96726.94
2017-11-30T15:40:21.936Z,96729.80
2017-11-30T15:42:49.336Z,96731.11
2017-11-30T15:45:16.771Z,96732.02
2017-11-30T15:47:44.213Z,96731.25
2017-11-30T15:50:11.705Z,96736.65
2017-11-30T15:52:39.374Z,96735.03
2017-11-30T15:55:06.760Z,96741.33
2017-11-30T15:57:34.187Z,96741.53
2017-11-30T16:00:01.608Z,96735.33
2017-11-30T16:02:29.039Z,96735.03
2017-11-30T16:04:56.444Z,96738.27
2017-11-30T16:07:23.920Z,96732.00
2017-11-30T16:09:51.317Z,96734.04
2017-11-30T16:12:18.843Z,96734.26
2017-11-30T16:14:46.229Z,96743.83
2017-11-30T16:17:13.685Z,96742.38
2017-11-30T16:19:41.118Z,96737.77
2017-11-30T16:22:08.592Z,96742.84
2017-11-30T16:24:36.007Z,96737.76
2017-11-30T16:27:03.553Z,96729.55
2017-11-30T16:29:30.933Z,96736.11
2017-11-30T16:31:58.412Z,96738.48
2017-11-30T16:34:25.819Z,96739.84
2017-11-30T16:36:53.314Z,96741.30
2017-11-30T16:39:20.709Z,96738.13
2017-11-30T16:41:48.136Z,96747.57
2017-11-30T16:44:15.530Z,96748.23
2017-11-30T16:46:42.962Z,96750.56
2017-11-30T16:49:10.358Z,96745.31
2017-11-30T16:51:37.848Z,96757.32
2017-11-30T16:54:05.328Z,96761.42
2017-11-30T16:56:32.726Z,96766.51
2017-11-30T16:59:00.258Z,96766.71
2017-11-30T17:01:27.666Z,96767.84
2017-11-30T17:03:55.098Z,96774.50
2017-11-30T17:06:22.576Z,96780.91
2017-11-30T17:08:50.032Z,96777.77
2017-11-30T17:11:17.448Z,96785.22
2017-11-30T17:13:44.881Z,96789.02
2017-11-30T17:16:12.280Z,96795.57
2017-11-30T17:18:39.712Z,96790.06
2017-11-30T17:21:07.114Z,96792.66
2017-11-30T17:23:34.650Z,96787.54
2017-11-30T17:26:02.134Z,96793.59
2017-11-30T17:28:29.619Z,96792.42
2017-11-30T17:30:57.132Z,96792.32
2017-11-30T17:33:25.333Z,96794.55
2017-11-30T17:35:52.751Z,96799.98
2017-11-30T17:38:20.296Z,96800.59
2017-11-30T17:40:47.683Z,96806.31
2017-11-30T17:43:15.114Z,96814.55
2017-11-30T17:45:42.513Z,96813.80
2017-11-30T17:48:10.024Z,96811.79
2017-11-30T17:50:37.431Z,96814.58
2017-11-30T17:53:04.875Z,96826.95
2017-11-30T17:55:32.281Z,96821.27
2017-11-30T17:57:59.734Z,96815.85
2017-11-30T18:00:27.242Z,96819.73
2017-11-30T18:02:54.832Z,96819.86
2017-11-30T18:05:22.270Z,96807.55
2017-11-30T18:07:49.664Z,96814.38
2017-11-30T18:10:17.136Z,96809.00
2017-11-30T18:12:44.538Z,96822.69
2017-11-30T18:15:12.053Z,96809.47
2017-11-30T18:17:39.510Z,96809.33
2017-11-30T18:20:06.972Z,96818.91
2017-11-30T18:22:34.382Z,96820.52
2017-11-30T18:25:01.854Z,96815.26
2017-11-30T18:27:29.252Z,96816.27
2017-11-30T18:29:56.774Z,96813.25
2017-11-30T18:32:24.257Z,96817.60
2017-11-30T18:34:51.691Z,96811.27
2017-11-30T18:37:19.102Z,96821.77
2017-11-30T18:39:46.539Z,96816.80
2017-11-30T18:42:14.119Z,96815.46
2017-11-30T18:44:41.577Z,96815.45
2017-11-30T18:47:08.994Z,96815.27
2017-11-30T18:49:36.447Z,96818.61
2017-11-30T18:52:03.842Z,96822.08
2017-11-30T18:54:31.314Z,96830.58
2017-11-30T18:56:58.719Z,96816.28
2017-11-30T18:59:26.203Z,96820.53
2017-11-30T19:01:53.605Z,96826.05
2017-11-30T19:04:21.122Z,96825.52
2017-11-30T19:06:48.532Z,96823.09
2017-11-30T19:09:15.971Z,96827.22
2017-11-30T19:11:43.508Z,96834.48
2017-11-30T19:14:10.939Z,96834.61
2017-11-30T19:16:38.342Z,96837.70
2017-11-30T19:19:05.810Z,96835.39
2017-11-30T19:21:33.265Z,96840.03
2017-11-30T19:24:00.678Z,96855.72
2017-11-30T19:26:28.150Z,96850.66
2017-11-30T19:28:55.628Z,96857.35
2017-11-30T19:31:23.116Z,96851.47
2017-11-30T19:33:50.507Z,96862.86
2017-11-30T19:36:18.045Z,96858.58
2017-11-30T19:38:45.441Z,96861.63
2017-11-30T19:41:13.003Z,96863.52
2017-11-30T19:43:40.447Z,96858.29
2017-11-30T19:46:07.919Z,96862.90
2017-11-30T19:48:35.317Z,96864.09
2017-11-30T19:51:02.860Z,96848.59
2017-11-30T19:53:30.342Z,96854.69
2017-11-30T19:55:57.897Z,96851.92
2017-11-30T19:58:25.310Z,96848.83
2017-11-30T20:00:52.791Z,96854.80
2017-11-30T20:03:20.308Z,96856.22
2017-11-30T20:05:47.768Z,96858.06
2017-11-30T20:08:15.176Z,96860.47
2017-11-30T20:10:42.669Z,96850.34
2017-11-30T20:13:10.084Z,96857.89
2017-11-30T20:15:37.513Z,96866.06
2017-11-30T20:18:04.932Z,96861.94
2017-11-30T20:20:32.407Z,96871.80
2017-11-30T20:22:59.814Z,96865.48
2017-11-30T20:25:27.334Z,96876.80
2017-11-30T20:27:54.819Z,96880.23
2017-11-30T20:30:22.250Z,96877.63
2017-11-30T20:32:49.682Z,96875.80
2017-11-30T20:35:17.088Z,96874.91
2017-11-30T20:37:44.594Z,96873.52
2017-11-30T20:40:11.992Z,96879.16
2017-11-30T20:42:39.576Z,96876.14
2017-11-30T20:45:06.974Z,96871.80
2017-11-30T20:47:34.462Z,96872.19
2017-11-30T20:50:01.862Z,96876.64
2017-11-30T20:52:29.310Z,96871.73
2017-11-30T20:54:56.743Z,96876.58
2017-11-30T20:57:24.218Z,96874.75
2017-11-30T20:59:51.611Z,96871.25
2017-11-30T21:02:19.053Z,96869.92
2017-11-30T21:04:46.538Z,96876.45
2017-11-30T21:07:13.986Z,96874.35
2017-11-30T21:09:41.587Z,96879.18
2017-11-30T21:12:09.071Z,96871.42
2017-11-30T21:14:36.474Z,96874.42
2017-11-30T21:17:03.910Z,96869.91
2017-11-30T21:19:31.379Z,96869.59
2017-11-30T21:21:58.947Z,96873.90
2017-11-30T21:24:26.383Z,96877.55
2017-11-30T21:26:53.884Z,96867.80
2017-11-30T21:29:21.327Z,96881.98
2017-11-30T21:31:48.816Z,96885.08
2017-11-30T21:34:16.225Z,96885.70
2017-11-30T21:36:43.698Z,96885.77
2017-11-30T21:39:11.103Z,96875.02
2017-11-30T21:41:38.565Z,96877.91
2017-11-30T21:44:06.011Z,96875.61
2017-11-30T21:46:33.430Z,96872.00
2017-11-30T21:49:00.867Z,96876.55
2017-11-30T21:51:28.273Z,96885.72
2017-11-30T21:53:55.874Z,96886.92
2017-11-30T21:56:23.419Z,96878.05
2017-11-30T21:58:50.915Z,96883.72
2017-11-30T22:01:18.359Z,96875.25
2017-11-30T22:03:45.845Z,96881.30
2017-11-30T22:06:13.312Z,96882.80
2017-11-30T22:08:40.746Z,96880.39
2017-11-30T22:11:08.147Z,96879.48
2017-11-30T22:13:35.595Z,96878.16
2017-11-30T22:16:03.006Z,96882.58
2017-11-30T22:18:30.527Z,96883.89
2017-11-30T22:20:58.023Z,96885.59
2017-11-30T22:23:25.472Z,96881.58
2017-11-30T22:25:52.894Z,96889.92
2017-11-30T22:28:20.426Z,96891.02
2017-11-30T22:30:47.828Z,96891.42
2017-11-30T22:33:15.374Z,96893.95
2017-11-30T22:35:42.781Z,96895.75
2017-11-30T22:38:10.235Z,96887.19
2017-11-30T22:40:37.638Z,96894.32
2017-11-30T22:43:05.091Z,96901.20
2017-11-30T22:45:32.496Z,96901.58
2017-11-30T22:47:59.986Z,96901.98
2017-11-30T22:50:27.466Z,96904.41
2017-11-30T22:52:55.095Z,96895.22
2017-11-30T22:55:22.550Z,96902.07
2017-11-30T22:57:49.942Z,96909.73
2017-11-30T23:00:17.382Z,96902.06
2017-11-30T23:02:44.872Z,96895.66
2017-11-30T23:05:12.318Z,96897.18
2017-11-30T23:07:39.735Z,96898.46
2017-11-30T23:10:07.161Z,96896.84
2017-11-30T23:12:34.589Z,96889.91
2017-11-30T23:15:02.039Z,96896.66
2017-11-30T23:17:29.520Z,96901.08
2017-11-30T23:19:56.970Z,96895.44
2017-11-30T23:22:24.467Z,96888.38
2017-11-30T23:24:51.896Z,96888.74
2017-11-30T23:27:19.395Z,96891.17
2017-11-30T23:29:46.829Z,96883.14
2017-11-30T23:32:14.222Z,96892.07
2017-11-30T23:34:41.656Z,96890.45
2017-11-30T23:37:09.054Z,96893.20
2017-11-30T23:39:36.478Z,96895.09
2017-11-30T23:42:03.882Z,96890.61
2017-11-30T23:44:31.310Z,96891.70
2017-11-30T23:46:58.724Z,96891.33
2017-11-30T23:49:26.198Z,96874.83
2017-11-30T23:51:53.637Z,96876.05
2017-11-30T23:54:21.084Z,96870.92
2017-11-30T23:56:48.466Z,96875.64
2017-11-30T23:59:15.906Z,96882.00
